Yutaka Maru No.2 — JD4265 — position and weather

sailwx.info

Track history (hours):
 
Tides and Currents Weather Stations Pressure Air Temp Water Temp Dewpoint Dewpoint Depression Visibility Wind Speed Wind Dir Waves Ship Positions

Yutaka Maru No.2

Last reported at 2018-May-19 09:34 UTC. Time now 2018-May-20 11:20 UTC.
Position N 34°26' E 134°25'.

Length 76 m; draft 4.2 m.

Type: Cargo ship. MMSI: 431010033.

Date/timePositionNaut miles runAvg speedWind from/ knotsBaromVisibWave heightAir tempDewpointWater temp
2018-May-19 09:34N 34°26' E 134°25'212.3
2018-May-19 09:25N 34°27' E 134°27'512.3
2018-May-19 09:00N 34°28' E 134°32'612.1
2018-May-19 08:29N 34°31' E 134°40'712.1
2018-May-19 07:56N 34°33' E 134°47'510.7
2018-May-19 07:30N 34°35' E 134°52'6 9.6
2018-May-19 06:53N 34°37' E 134°59'3 8.1
2018-May-19 06:29N 34°36' E 135°03'510.8
2018-May-19 06:00N 34°35' E 135°09'612.8
2018-May-19 05:30N 34°33' E 135°16'612.0
2018-May-19 05:00N 34°31' E 135°23'1 1.6
2018-May-19 04:30N 34°31' E 135°24'0 0.0
2018-May-18 06:00N 34°31' E 135°24'0 0.2
2018-May-18 05:28N 34°31' E 135°24'1 1.9
2018-May-18 05:00N 34°32' E 135°23'1 0.3
2018-May-18 02:24N 34°32' E 135°22'1 1.8
2018-May-18 01:59N 34°32' E 135°21'511.0
2018-May-18 01:30N 34°29' E 135°16'611.5
2018-May-18 01:00N 34°25' E 135°10'612.0
2018-May-18 00:30N 34°20' E 135°06'612.5
2018-May-18 00:00N 34°15' E 135°03'612.3
2018-May-17 23:30N 34°09' E 135°03'612.4
2018-May-17 23:00N 34°02' E 135°02'712.4
2018-May-17 22:28N 33°56' E 135°02'215 9.0
2018-May-16 22:40N 34°47' E 139°15'13 9.0
2018-May-16 21:11N 34°49' E 139°31'311.6
2018-May-16 20:58N 34°49' E 139°34'610.5
2018-May-16 20:26N 34°49' E 139°41'4 8.6
2018-May-16 19:57N 34°49' E 139°46'  
2018-May-13 10:59N 34°56' E 140°09'3912.6
2018-May-13 07:56N 34°39' E 139°26'1114.3
2018-May-13 07:11N 34°38' E 139°13'313.8
2018-May-13 06:56N 34°37' E 139°09'713.7
2018-May-13 06:27N 34°36' E 139°01'612.7
2018-May-13 06:00N 34°35' E 138°55'1513.3
2018-May-13 04:53N 34°34' E 138°36'512.9
2018-May-13 04:29N 34°34' E 138°30'612.6
2018-May-13 04:00N 34°34' E 138°23'1412.2
2018-May-13 02:50N 34°32' E 138°06'15810.6
2018-May-12 11:59N 33°53' E 135°01'610.6
2018-May-12 11:27N 33°57' E 134°57'612.3
2018-May-12 11:00N 34°02' E 134°52'611.9
2018-May-12 10:29N 34°06' E 134°47'911.4
2018-May-12 09:41N 34°13' E 134°40'2 9.6
2018-May-12 09:26N 34°15' E 134°38'511.7
2018-May-12 09:00N 34°18' E 134°33'611.6
2018-May-12 08:31N 34°19' E 134°27'611.4
2018-May-12 08:00N 34°21' E 134°20'511.2
2018-May-12 07:30N 34°23' E 134°14'81 3.2
2018-May-11 06:29N 34°02' E 132°40'2312.1
2018-May-11 04:37N 33°50' E 132°17'212.1
2018-May-11 04:28N 33°50' E 132°15'612.0
2018-May-11 04:00N 33°48' E 132°08'611.2
2018-May-11 03:28N 33°46' E 132°01'511.5
2018-May-11 03:00N 33°46' E 131°55'612.3
2018-May-11 02:30N 33°47' E 131°48'612.5
2018-May-11 02:00N 33°48' E 131°41'612.6
2018-May-11 01:30N 33°49' E 131°33'612.6
2018-May-11 01:00N 33°50' E 131°26'612.5
2018-May-11 00:30N 33°51' E 131°18'612.4
2018-May-11 00:00N 33°53' E 131°11'612.5
2018-May-10 23:31N 33°56' E 131°04'2 0.2
2018-May-10 14:14N 33°57' E 131°02'0 0.5
2018-May-10 14:00N 33°57' E 131°02'5 9.6
2018-May-10 13:30N 33°56' E 130°56'5 9.1
2018-May-10 13:00N 33°57' E 130°51'612.4
2018-May-10 12:30N 33°58' E 130°44'612.5
2018-May-10 12:00N 33°57' E 130°36'612.2
2018-May-10 11:30N 33°55' E 130°29'612.5
2018-May-10 11:00N 33°51' E 130°24'612.4
2018-May-10 10:30N 33°46' E 130°18'612.4
2018-May-10 10:00N 33°42' E 130°13'612.2
2018-May-10 09:30N 33°38' E 130°07'712.2
2018-May-10 08:57N 33°36' E 129°60'511.8
2018-May-10 08:30N 33°34' E 129°53'  
Track history (hours):
 
Tides and Currents Weather Stations Pressure Air Temp Water Temp Dewpoint Dewpoint Depression Visibility Wind Speed Wind Dir Waves Ship Positions

Yutaka Maru No.2

Last reported at 2018-May-19 09:34 UTC. Time now 2018-May-20 11:20 UTC.
Position N 34°26' E 134°25'.

Length 76 m; draft 4.2 m.

Type: Cargo ship. MMSI: 431010033.

Date/timePositionNaut miles runAvg speedWind from/ knotsBaromVisibWave heightAir tempDewpointWater temp
2018-May-19 09:34N 34°26' E 134°25'212.3
2018-May-19 09:25N 34°27' E 134°27'512.3
2018-May-19 09:00N 34°28' E 134°32'612.1
2018-May-19 08:29N 34°31' E 134°40'712.1
2018-May-19 07:56N 34°33' E 134°47'510.7
2018-May-19 07:30N 34°35' E 134°52'6 9.6
2018-May-19 06:53N 34°37' E 134°59'3 8.1
2018-May-19 06:29N 34°36' E 135°03'510.8
2018-May-19 06:00N 34°35' E 135°09'612.8
2018-May-19 05:30N 34°33' E 135°16'612.0
2018-May-19 05:00N 34°31' E 135°23'1 1.6
2018-May-19 04:30N 34°31' E 135°24'0 0.0
2018-May-18 06:00N 34°31' E 135°24'0 0.2
2018-May-18 05:28N 34°31' E 135°24'1 1.9
2018-May-18 05:00N 34°32' E 135°23'1 0.3
2018-May-18 02:24N 34°32' E 135°22'1 1.8
2018-May-18 01:59N 34°32' E 135°21'511.0
2018-May-18 01:30N 34°29' E 135°16'611.5
2018-May-18 01:00N 34°25' E 135°10'612.0
2018-May-18 00:30N 34°20' E 135°06'612.5
2018-May-18 00:00N 34°15' E 135°03'612.3
2018-May-17 23:30N 34°09' E 135°03'612.4
2018-May-17 23:00N 34°02' E 135°02'712.4
2018-May-17 22:28N 33°56' E 135°02'215 9.0
2018-May-16 22:40N 34°47' E 139°15'13 9.0
2018-May-16 21:11N 34°49' E 139°31'311.6
2018-May-16 20:58N 34°49' E 139°34'610.5
2018-May-16 20:26N 34°49' E 139°41'4 8.6
2018-May-16 19:57N 34°49' E 139°46'  
2018-May-13 10:59N 34°56' E 140°09'3912.6
2018-May-13 07:56N 34°39' E 139°26'1114.3
2018-May-13 07:11N 34°38' E 139°13'313.8
2018-May-13 06:56N 34°37' E 139°09'713.7
2018-May-13 06:27N 34°36' E 139°01'612.7
2018-May-13 06:00N 34°35' E 138°55'1513.3
2018-May-13 04:53N 34°34' E 138°36'512.9
2018-May-13 04:29N 34°34' E 138°30'612.6
2018-May-13 04:00N 34°34' E 138°23'1412.2
2018-May-13 02:50N 34°32' E 138°06'15810.6
2018-May-12 11:59N 33°53' E 135°01'610.6
2018-May-12 11:27N 33°57' E 134°57'612.3
2018-May-12 11:00N 34°02' E 134°52'611.9
2018-May-12 10:29N 34°06' E 134°47'911.4
2018-May-12 09:41N 34°13' E 134°40'2 9.6
2018-May-12 09:26N 34°15' E 134°38'511.7
2018-May-12 09:00N 34°18' E 134°33'611.6
2018-May-12 08:31N 34°19' E 134°27'611.4
2018-May-12 08:00N 34°21' E 134°20'511.2
2018-May-12 07:30N 34°23' E 134°14'81 3.2
2018-May-11 06:29N 34°02' E 132°40'2312.1
2018-May-11 04:37N 33°50' E 132°17'212.1
2018-May-11 04:28N 33°50' E 132°15'612.0
2018-May-11 04:00N 33°48' E 132°08'611.2
2018-May-11 03:28N 33°46' E 132°01'511.5
2018-May-11 03:00N 33°46' E 131°55'612.3
2018-May-11 02:30N 33°47' E 131°48'612.5
2018-May-11 02:00N 33°48' E 131°41'612.6
2018-May-11 01:30N 33°49' E 131°33'612.6
2018-May-11 01:00N 33°50' E 131°26'612.5
2018-May-11 00:30N 33°51' E 131°18'612.4
2018-May-11 00:00N 33°53' E 131°11'612.5
2018-May-10 23:31N 33°56' E 131°04'2 0.2
2018-May-10 14:14N 33°57' E 131°02'0 0.5
2018-May-10 14:00N 33°57' E 131°02'5 9.6
2018-May-10 13:30N 33°56' E 130°56'5 9.1
2018-May-10 13:00N 33°57' E 130°51'612.4
2018-May-10 12:30N 33°58' E 130°44'612.5
2018-May-10 12:00N 33°57' E 130°36'612.2
2018-May-10 11:30N 33°55' E 130°29'612.5
2018-May-10 11:00N 33°51' E 130°24'612.4
2018-May-10 10:30N 33°46' E 130°18'612.4
2018-May-10 10:00N 33°42' E 130°13'612.2
2018-May-10 09:30N 33°38' E 130°07'712.2
2018-May-10 08:57N 33°36' E 129°60'511.8
2018-May-10 08:30N 33°34' E 129°53'  

Dump ship's entire track history